Time;durP1;ratioP1;P1;durP2;ratioP2;P2;SDS_P1;SDS_P2;PMS_P1;PMS_P2;Temp;Humidity;BMP_temperature;BMP_pressure;BME280_temperature;BME280_humidity;BME280_pressure;Samples;Min_cycle;Max_cycle;Signal;HPM_P1;HPM_P2
2021/11/12 00:03:13;;;;;;;13.02;5.32;;;;;;;11.71;66.06;101803.63;4870733;28;123127;-92
2021/11/12 00:13:49;;;;;;;9.75;4.63;;;;;;;11.67;65.81;101806.47;4887392;28;120750;-90
2021/11/12 00:16:16;;;;;;;12.32;4.97;;;;;;;11.63;65.75;101801.06;4841101;28;123781;-91
2021/11/12 00:18:42;;;;;;;10.25;5.15;;;;;;;11.59;65.56;101794.88;4893489;28;119872;-92
2021/11/12 00:21:08;;;;;;;13.55;5.38;;;;;;;11.46;65.70;101779.50;4835860;28;122930;-90
2021/11/12 00:23:37;;;;;;;14.93;5.65;;;;;;;11.68;65.69;101819.78;4851291;28;123209;-90
2021/11/12 00:26:04;;;;;;;15.35;5.53;;;;;;;11.73;65.72;101826.72;4883932;28;120006;-90
2021/11/12 00:28:38;;;;;;;11.07;5.30;;;;;;;11.66;65.89;101822.19;4893552;28;119768;-92
2021/11/12 00:31:19;;;;;;;;;;;;;;;11.70;65.74;101824.84;4855616;28;119503;-91
2021/11/12 00:39:26;;;;;;;;;;;;;;;11.72;66.09;101813.41;4901232;28;120528;-91
2021/11/12 00:42:13;;;;;;;14.88;5.03;;;;;;;11.67;66.09;101801.75;4887224;28;121774;-91
2021/11/12 00:44:45;;;;;;;11.45;5.72;;;;;;;11.64;66.10;101794.34;4854279;28;123568;-91
2021/11/12 00:50:05;;;;;;;15.52;6.00;;;;;;;11.73;66.40;101792.97;4849725;28;122107;-91
2021/11/12 00:53:39;;;;;;;;;;;;;;;11.74;66.27;101794.50;4876081;28;120390;-90
2021/11/12 00:55:26;;;;;;;12.18;5.68;;;;;;;11.76;66.38;101786.59;4870906;28;121429;-91
2021/11/12 00:57:56;;;;;;;12.10;5.28;;;;;;;11.79;66.17;101785.75;4880411;28;121727;-92
2021/11/12 01:00:24;;;;;;;11.18;5.57;;;;;;;11.80;65.87;101787.31;4868048;28;119709;-91
2021/11/12 01:02:50;;;;;;;10.38;5.50;;;;;;;11.72;65.68;101772.19;4852340;28;122395;-90
2021/11/12 01:05:16;;;;;;;12.40;5.95;;;;;;;11.72;65.84;101775.69;4851626;28;123736;-91
2021/11/12 01:07:43;;;;;;;11.27;5.72;;;;;;;11.49;66.26;101746.44;4838374;28;119844;-92
2021/11/12 01:10:12;;;;;;;10.15;5.63;;;;;;;11.59;66.13;101753.66;4838240;28;122511;-91
2021/11/12 01:12:42;;;;;;;16.95;6.00;;;;;;;11.72;66.11;101780.44;4852325;28;123155;-91
2021/11/12 01:15:12;;;;;;;16.13;6.63;;;;;;;11.60;66.25;101768.94;4841690;28;119985;-92
2021/11/12 01:17:39;;;;;;;10.43;5.97;;;;;;;11.86;66.21;101804.84;4853754;28;124105;-92
2021/11/12 01:20:06;;;;;;;14.93;5.80;;;;;;;11.59;65.72;101755.59;4852777;28;120339;-91
2021/11/12 01:22:35;;;;;;;13.93;5.88;;;;;;;11.73;65.58;101780.00;4836973;28;122237;-90
2021/11/12 01:25:04;;;;;;;11.50;5.80;;;;;;;11.68;65.96;101762.06;4870595;28;122901;-90
2021/11/12 01:27:31;;;;;;;14.75;5.85;;;;;;;11.73;65.71;101768.22;4870720;28;121930;-91
2021/11/12 01:29:57;;;;;;;10.85;6.00;;;;;;;11.63;65.92;101753.56;4851467;28;121828;-91
2021/11/12 01:32:23;;;;;;;14.23;5.63;;;;;;;11.83;65.99;101778.19;4840051;28;123299;-92
2021/11/12 01:34:55;;;;;;;14.02;5.72;;;;;;;11.99;66.38;101789.16;4874554;28;119736;-90
2021/11/12 01:37:24;;;;;;;14.88;5.80;;;;;;;11.81;66.24;101766.88;4839909;28;123297;-90
2021/11/12 01:39:55;;;;;;;14.25;6.15;;;;;;;12.03;66.43;101798.09;4872134;28;119675;-92
2021/11/12 01:42:27;;;;;;;10.80;5.88;;;;;;;11.92;66.06;101776.41;4856860;28;122253;-92
2021/11/12 01:45:08;;;;;;;10.93;5.85;;;;;;;11.87;66.19;101765.16;4871777;28;124356;-93
2021/11/12 01:47:45;;;;;;;12.57;5.65;;;;;;;11.86;66.17;101753.38;4871776;28;120063;-90
2021/11/12 01:50:15;;;;;;;13.48;6.13;;;;;;;11.98;65.85;101771.13;4880522;28;122100;-90
2021/11/12 01:52:45;;;;;;;14.75;5.28;;;;;;;11.92;65.81;101761.88;4858260;28;123395;-90
2021/11/12 01:55:14;;;;;;;13.70;5.97;;;;;;;11.80;66.17;101740.56;4855766;28;119942;-93
2021/11/12 02:00:25;;;;;;;;;;;;;;;12.07;65.73;101771.28;4871276;28;119995;-92
2021/11/12 02:02:51;;;;;;;17.38;6.05;;;;;;;11.90;66.06;101736.78;4861798;28;121614;-92
2021/11/12 02:05:18;;;;;;;15.50;6.20;;;;;;;12.09;66.45;101766.13;4854882;28;121712;-92
2021/11/12 02:07:45;;;;;;;12.20;6.38;;;;;;;12.09;66.16;101765.38;4841243;28;120145;-92
2021/11/12 02:10:20;;;;;;;15.43;5.93;;;;;;;12.12;66.62;101768.00;4841504;28;121528;-92
2021/11/12 02:12:59;;;;;;;17.83;6.25;;;;;;;11.99;66.55;101740.44;4842039;28;122974;-93
2021/11/12 02:15:27;;;;;;;14.68;6.43;;;;;;;12.01;66.61;101728.25;4855869;28;119876;-92
2021/11/12 02:18:07;;;;;;;13.80;5.68;;;;;;;12.25;66.69;101748.78;4855357;28;121073;-91
2021/11/12 02:23:03;;;;;;;11.13;5.47;;;;;;;12.32;66.28;101745.09;4866295;28;119934;-91
2021/11/12 02:25:40;;;;;;;13.10;5.95;;;;;;;12.11;66.61;101710.69;4836778;28;123820;-91
2021/11/12 02:28:13;;;;;;;14.43;5.90;;;;;;;12.36;66.46;101745.75;4841362;28;120003;-93
2021/11/12 02:30:41;;;;;;;12.18;5.72;;;;;;;12.14;66.43;101718.84;4852621;28;122316;-91
2021/11/12 02:33:11;;;;;;;11.75;6.10;;;;;;;12.21;66.28;101723.34;4855488;28;120597;-91
2021/11/12 02:35:41;;;;;;;17.85;5.95;;;;;;;12.44;66.38;101742.34;4841403;28;119955;-91
2021/11/12 02:38:08;;;;;;;16.83;6.63;;;;;;;12.45;66.18;101743.88;4840317;28;122304;-92
2021/11/12 02:40:35;;;;;;;13.20;6.55;;;;;;;12.25;66.46;101710.28;4840253;28;123238;-93
2021/11/12 02:43:02;;;;;;;17.65;6.50;;;;;;;12.35;66.54;101716.69;4861661;28;119732;-92
2021/11/12 02:45:29;;;;;;;16.70;6.70;;;;;;;12.33;66.48;101705.34;4856583;28;123266;-92
2021/11/12 02:47:55;;;;;;;18.25;7.10;;;;;;;12.46;66.93;101711.63;4857720;28;120531;-92
2021/11/12 02:50:21;;;;;;;22.85;7.35;;;;;;;12.56;66.82;101716.06;4845050;28;120695;-92
2021/11/12 02:52:53;;;;;;;15.02;7.45;;;;;;;12.05;66.63;101638.94;4888468;28;120456;-92
2021/11/12 02:55:18;;;;;;;16.15;7.30;;;;;;;12.33;66.70;101677.84;4856532;28;120892;-93
2021/11/12 02:57:46;;;;;;;20.42;6.85;;;;;;;12.55;66.70;101715.28;4888426;28;120230;-91
2021/11/12 03:00:14;;;;;;;12.52;6.50;;;;;;;12.62;66.95;101717.06;4871938;28;123456;-90
2021/11/12 03:02:40;;;;;;;17.65;6.85;;;;;;;12.70;66.82;101707.38;4872082;28;119554;-91
2021/11/12 03:05:06;;;;;;;16.83;6.57;;;;;;;12.71;66.76;101705.38;4859949;28;122247;-91
2021/11/12 03:07:32;;;;;;;16.70;7.18;;;;;;;12.64;66.69;101686.34;4864994;28;119634;-93
2021/11/12 03:10:00;;;;;;;15.15;6.78;;;;;;;12.72;66.61;101696.69;4873070;28;122634;-91
2021/11/12 03:12:26;;;;;;;17.77;6.60;;;;;;;12.72;66.70;101702.19;4855640;28;122789;-91
2021/11/12 03:14:53;;;;;;;17.98;7.50;;;;;;;12.68;66.19;101689.75;4876683;28;119811;-92
2021/11/12 03:17:19;;;;;;;18.52;7.82;;;;;;;12.75;66.82;101717.81;4862295;28;121036;-92
2021/11/12 03:19:45;;;;;;;24.52;10.20;;;;;;;12.82;66.77;101717.63;4857421;28;123091;-92
2021/11/12 03:22:16;;;;;;;26.20;10.88;;;;;;;12.48;66.95;101671.47;4857312;28;119715;-91
2021/11/12 03:24:51;;;;;;;33.05;12.10;;;;;;;12.67;67.19;101694.47;4840667;28;122260;-92
2021/11/12 04:00:24;;;;;;;143.10;34.97;;;;;;;13.25;68.96;101696.22;4867975;28;122614;-91
2021/11/12 04:19:00;;;;;;;111.32;35.35;;;;;;;13.44;69.12;101673.91;4875930;28;120638;-93
2021/11/12 04:40:37;;;;;;;130.82;39.72;;;;;;;13.55;69.51;101646.00;4850924;28;119981;-91
2021/11/12 05:46:36;;;;;;;95.95;35.35;;;;;;;13.99;69.44;101574.28;4883325;28;123405;-93
2021/11/12 05:57:19;;;;;;;90.53;36.72;;;;;;;14.00;69.35;101562.78;4851770;28;122723;-93
2021/11/12 05:59:45;;;;;;;86.90;34.53;;;;;;;13.96;69.23;101542.06;4852507;28;123252;-92
2021/11/12 06:02:11;;;;;;;89.55;35.47;;;;;;;14.05;69.59;101556.69;4869387;28;119749;-93
2021/11/12 06:04:37;;;;;;;84.18;33.25;;;;;;;14.07;69.29;101548.72;4854333;28;121942;-91
2021/11/12 06:07:02;;;;;;;91.00;36.97;;;;;;;14.08;69.64;101539.22;4850129;28;122170;-92
2021/11/12 06:09:28;;;;;;;93.75;36.28;;;;;;;14.17;69.22;101537.72;4869137;28;120647;-91
2021/11/12 06:12:11;;;;;;;92.75;35.85;;;;;;;14.11;69.38;101532.78;4872574;28;122345;-91
2021/11/12 06:14:37;;;;;;;92.25;35.58;;;;;;;14.19;69.24;101538.03;4868260;28;119652;-91
2021/11/12 06:17:03;;;;;;;81.53;34.55;;;;;;;14.17;69.47;101529.44;4853721;28;122607;-92
2021/11/12 06:19:29;;;;;;;83.28;34.15;;;;;;;14.12;69.13;101517.78;4870123;28;123749;-92
2021/11/12 06:21:55;;;;;;;82.82;34.42;;;;;;;14.12;69.02;101525.28;4869460;28;120157;-91
2021/11/12 06:24:21;;;;;;;89.70;35.13;;;;;;;14.18;69.27;101539.25;4857279;28;122828;-91
2021/11/12 06:26:46;;;;;;;91.28;35.65;;;;;;;14.11;69.40;101526.50;4856126;28;123151;-92
2021/11/12 06:29:12;;;;;;;89.22;35.42;;;;;;;14.13;69.34;101519.31;4836852;28;119998;-92
2021/11/12 06:31:38;;;;;;;96.82;36.22;;;;;;;14.17;69.34;101516.41;4870989;28;122598;-92
2021/11/12 06:34:04;;;;;;;88.65;35.35;;;;;;;14.11;69.32;101523.75;4860281;28;121707;-91
2021/11/12 06:36:30;;;;;;;95.05;36.42;;;;;;;14.04;69.24;101496.44;4857503;28;122968;-93
2021/11/12 06:38:56;;;;;;;93.68;35.05;;;;;;;13.94;69.48;101481.84;4852023;28;123103;-92
2021/11/12 06:50:16;;;;;;;103.20;35.80;;;;;;;14.17;69.62;101512.88;4869712;28;119894;-92
2021/11/12 06:52:36;;;;;;;94.03;35.78;;;;;;;14.13;69.71;101497.22;4855524;28;122716;-94
2021/11/12 06:55:03;;;;;;;89.95;33.60;;;;;;;14.18;69.67;101497.84;4871101;28;120348;-92
2021/11/12 06:57:29;;;;;;;94.68;34.08;;;;;;;14.25;69.99;101514.91;4843246;28;124599;-94
2021/11/12 06:59:55;;;;;;;100.68;34.67;;;;;;;14.19;70.10;101496.63;4855984;28;123661;-93
2021/11/12 07:02:22;;;;;;;91.43;32.00;;;;;;;13.99;69.73;101459.19;4855577;28;119853;-92
2021/11/12 07:04:49;;;;;;;90.85;33.70;;;;;;;14.23;70.04;101500.03;4872050;28;122263;-92
2021/11/12 07:07:15;;;;;;;107.43;32.28;;;;;;;14.24;70.19;101485.78;4852709;28;123477;-91
2021/11/12 07:09:41;;;;;;;96.72;35.10;;;;;;;14.22;69.89;101479.19;4855634;28;119955;-92
2021/11/12 07:12:07;;;;;;;103.38;35.08;;;;;;;14.35;69.81;101490.84;4872461;28;122867;-91
2021/11/12 07:14:33;;;;;;;90.75;34.35;;;;;;;14.25;69.45;101489.31;4870758;28;121007;-91
2021/11/12 07:16:59;;;;;;;101.22;34.22;;;;;;;14.35;69.87;101504.66;4854823;28;120136;-92
2021/11/12 07:19:24;;;;;;;88.80;32.03;;;;;;;14.35;69.48;101501.91;4859415;28;122061;-91
2021/11/12 07:21:51;;;;;;;89.25;32.65;;;;;;;14.31;69.70;101501.28;4869268;28;126142;-92
2021/11/12 07:24:17;;;;;;;88.70;32.88;;;;;;;14.35;69.79;101504.66;4853110;28;122443;-92
2021/11/12 07:26:43;;;;;;;92.80;32.50;;;;;;;14.37;70.19;101510.50;4904470;28;123052;-92
2021/11/12 07:29:09;;;;;;;91.85;32.80;;;;;;;14.45;69.69;101506.25;4872645;28;120081;-92
2021/11/12 07:31:38;;;;;;;101.45;35.00;;;;;;;14.23;69.87;101467.69;4867441;28;123748;-93
2021/11/12 07:34:04;;;;;;;90.32;33.78;;;;;;;14.39;69.47;101488.72;4855088;28;123510;-93
2021/11/12 07:36:37;;;;;;;91.63;33.97;;;;;;;14.40;69.67;101495.78;4854688;28;120157;-92
2021/11/12 07:47:16;;;;;;;90.75;33.15;;;;;;;14.34;69.71;101495.59;4868892;28;122993;-93
2021/11/12 07:49:51;;;;;;;90.93;34.28;;;;;;;14.38;69.74;101498.22;4883990;28;120130;-94
2021/11/12 07:52:20;;;;;;;97.47;34.75;;;;;;;14.41;69.63;101503.59;4882136;28;120173;-93
2021/11/12 07:54:46;;;;;;;97.55;36.08;;;;;;;14.46;69.59;101501.50;4853718;28;123400;-91
2021/11/12 07:57:12;;;;;;;92.07;33.92;;;;;;;14.50;69.86;101505.66;4871538;28;119817;-92
2021/11/12 07:59:38;;;;;;;95.15;34.75;;;;;;;14.58;69.70;101515.16;4862507;28;122281;-93
2021/11/12 08:02:06;;;;;;;92.70;33.78;;;;;;;14.58;69.63;101515.16;4856107;28;123453;-93
2021/11/12 08:04:33;;;;;;;96.78;33.60;;;;;;;14.56;69.19;101520.38;4855844;28;120053;-93
2021/11/12 08:07:00;;;;;;;95.00;34.00;;;;;;;14.62;69.49;101528.81;4857610;28;122617;-93
2021/11/12 08:09:38;;;;;;;91.40;34.47;;;;;;;14.58;69.30;101509.63;4889959;28;120444;-93
2021/11/12 08:12:06;;;;;;;104.63;33.97;;;;;;;14.52;69.30;101510.72;4901185;28;120353;-92
2021/11/12 08:14:40;;;;;;;98.70;35.08;;;;;;;14.61;69.10;101519.00;4871102;28;120863;-94
2021/11/12 08:17:15;;;;;;;99.28;35.35;;;;;;;14.59;69.43;101524.22;4852063;28;119786;-92
2021/11/12 08:19:52;;;;;;;94.70;33.28;;;;;;;14.21;69.16;101470.16;4835150;28;122415;-92
2021/11/12 08:22:31;;;;;;;95.32;33.47;;;;;;;14.62;69.34;101524.06;4868118;28;121884;-93
2021/11/12 08:25:19;;;;;;;93.20;33.80;;;;;;;14.31;69.48;101477.22;4856976;28;119906;-93
2021/11/12 08:30:41;;;;;;;96.18;32.85;;;;;;;14.60;69.07;101514.69;4868991;28;120050;-93
2021/11/12 08:43:37;;;;;;;104.60;35.72;;;;;;;14.65;69.22;101514.09;4851668;28;122048;-94
2021/11/12 08:46:26;;;;;;;100.55;34.25;;;;;;;14.66;68.95;101513.63;4854498;28;120621;-92
2021/11/12 08:49:04;;;;;;;105.70;33.72;;;;;;;14.72;68.98;101524.84;4873204;28;119757;-92
2021/11/12 08:51:35;;;;;;;99.90;32.95;;;;;;;14.50;68.77;101494.59;4869023;28;120359;-93
2021/11/12 08:54:03;;;;;;;93.60;33.10;;;;;;;14.63;69.29;101514.56;4883559;28;121000;-93
2021/11/12 08:56:29;;;;;;;86.93;30.98;;;;;;;14.58;68.81;101501.34;4852179;28;121987;-92
2021/11/12 08:58:55;;;;;;;95.28;32.17;;;;;;;14.72;68.60;101525.63;4883011;28;122336;-91
2021/11/12 09:01:21;;;;;;;88.20;31.15;;;;;;;14.52;68.99;101488.63;4853056;28;122257;-91
2021/11/12 09:03:48;;;;;;;87.28;30.90;;;;;;;14.59;68.83;101493.84;4852825;28;123873;-92
2021/11/12 09:06:14;;;;;;;91.35;31.38;;;;;;;14.68;68.95;101496.63;4852626;28;120003;-94
2021/11/12 09:08:40;;;;;;;88.03;30.92;;;;;;;14.56;69.03;101476.19;4868842;28;122269;-93
2021/11/12 09:11:07;;;;;;;85.97;30.60;;;;;;;14.80;68.82;101498.47;4856006;28;122967;-91
2021/11/12 09:13:56;;;;;;;74.47;27.15;;;;;;;14.83;68.81;101508.59;4853240;28;122860;-93
2021/11/12 09:16:30;;;;;;;77.22;29.33;;;;;;;14.64;68.79;101480.19;4853287;28;123371;-93
2021/11/12 09:18:56;;;;;;;79.20;28.40;;;;;;;14.70;68.78;101489.41;4868416;28;120643;-92
2021/11/12 09:21:22;;;;;;;82.95;28.95;;;;;;;14.72;68.59;101486.97;4853433;28;122683;-93
2021/11/12 09:23:48;;;;;;;94.18;29.90;;;;;;;14.73;68.71;101487.72;4835527;28;122349;-94
2021/11/12 09:26:15;;;;;;;83.65;30.00;;;;;;;14.67;68.89;101461.97;4852065;28;120225;-92
2021/11/12 09:28:41;;;;;;;88.75;31.38;;;;;;;14.81;69.01;101493.72;4867997;28;121150;-94
2021/11/12 09:31:10;;;;;;;95.00;32.15;;;;;;;14.81;68.51;101488.19;4864442;28;120944;-94
2021/11/12 09:33:38;;;;;;;94.68;31.77;;;;;;;14.89;68.54;101503.97;4840057;28;119914;-93
2021/11/12 09:36:07;;;;;;;107.53;33.45;;;;;;;14.78;68.38;101489.88;4851841;28;123150;-93
2021/11/12 09:38:33;;;;;;;80.28;29.63;;;;;;;14.80;68.77;101503.22;4834519;28;119833;-93
2021/11/12 09:40:59;;;;;;;84.55;29.58;;;;;;;14.81;68.52;101504.75;4837830;28;122654;-93
2021/11/12 09:43:25;;;;;;;95.22;31.23;;;;;;;14.83;68.48;101496.78;4853239;28;122266;-93
2021/11/12 09:45:53;;;;;;;95.97;32.13;;;;;;;14.85;68.40;101502.59;4851589;28;119647;-92
2021/11/12 09:48:22;;;;;;;94.63;32.53;;;;;;;14.73;68.29;101494.03;4876619;28;122120;-94
2021/11/12 09:50:49;;;;;;;94.90;30.48;;;;;;;14.79;68.65;101496.16;4850748;28;124013;-92
2021/11/12 09:53:15;;;;;;;106.35;34.47;;;;;;;14.81;68.49;101499.22;4869676;28;120000;-93
2021/11/12 09:55:43;;;;;;;116.00;33.78;;;;;;;14.67;68.55;101481.28;4852947;28;122862;-93
2021/11/12 09:58:09;;;;;;;109.85;34.40;;;;;;;14.76;68.58;101486.03;4853192;28;120263;-93
2021/11/12 10:00:37;;;;;;;112.75;33.97;;;;;;;14.78;68.58;101491.88;4853840;28;122474;-92
2021/11/12 10:03:03;;;;;;;109.80;33.38;;;;;;;14.60;68.51;101476.81;4856100;28;123579;-93
2021/11/12 10:05:35;;;;;;;116.88;33.78;;;;;;;14.51;68.40;101463.00;4871209;28;119886;-94
2021/11/12 10:08:16;;;;;;;114.88;34.72;;;;;;;14.80;68.44;101508.75;4869902;28;122588;-93
2021/11/12 10:10:48;;;;;;;116.63;34.75;;;;;;;14.78;68.13;101502.91;4855388;28;123006;-94
2021/11/12 10:13:29;;;;;;;120.57;34.30;;;;;;;14.61;68.39;101475.59;4857811;28;121728;-93
2021/11/12 10:16:11;;;;;;;102.95;32.72;;;;;;;14.56;68.71;101461.63;4859411;28;121294;-94
2021/11/12 10:18:36;;;;;;;108.28;33.72;;;;;;;14.58;68.54;101459.94;4858007;28;121511;-95
2021/11/12 10:21:02;;;;;;;103.68;32.72;;;;;;;14.51;68.40;101440.16;4840193;28;121437;-93
2021/11/12 10:23:32;;;;;;;117.18;33.80;;;;;;;14.86;68.42;101490.34;4855289;28;123167;-93
2021/11/12 10:26:06;;;;;;;102.43;31.42;;;;;;;14.66;68.48;101452.13;4849984;28;120185;-93
2021/11/12 10:28:41;;;;;;;;;;;;;;;14.90;68.76;101477.91;4841179;28;121074;-94
2021/11/12 10:31:20;;;;;;;113.40;33.42;;;;;;;14.92;68.27;101471.94;4887799;28;121901;-93
2021/11/12 10:33:52;;;;;;;98.05;30.85;;;;;;;14.45;68.36;101406.88;4854357;28;120233;-92
2021/11/12 10:36:19;;;;;;;107.20;32.83;;;;;;;14.73;68.36;101441.56;4869233;28;122643;-94
2021/11/12 10:38:49;;;;;;;108.63;32.92;;;;;;;14.67;68.45;101426.84;4875972;28;120037;-93
2021/11/12 10:41:20;;;;;;;106.18;33.40;;;;;;;14.70;68.86;101425.16;4858358;28;123433;-95
2021/11/12 10:43:46;;;;;;;99.85;32.70;;;;;;;14.74;68.42;101434.03;4855073;28;123324;-94
2021/11/12 10:46:12;;;;;;;95.25;31.60;;;;;;;14.84;68.09;101451.34;4841574;28;119985;-94
2021/11/12 10:48:39;;;;;;;103.47;33.72;;;;;;;14.49;68.44;101390.94;4872322;28;121722;-93
2021/11/12 10:51:20;;;;;;;98.80;31.85;;;;;;;14.68;68.44;101409.03;4856805;28;122745;-91
2021/11/12 10:53:53;;;;;;;100.07;32.10;;;;;;;14.71;67.89;101402.59;4853813;28;119893;-92
2021/11/12 10:56:22;;;;;;;99.95;31.23;;;;;;;14.54;68.44;101379.28;4869669;28;119761;-90
2021/11/12 10:59:00;;;;;;;106.90;32.85;;;;;;;14.48;68.60;101364.56;4868281;28;123067;-90
2021/11/12 11:01:36;;;;;;;89.55;31.25;;;;;;;14.94;67.82;101431.56;4872553;28;120458;-92
2021/11/12 11:04:24;;;;;;;95.05;31.25;;;;;;;14.89;68.23;101428.63;4886023;28;123575;-90
2021/11/12 11:06:50;;;;;;;102.85;32.78;;;;;;;14.78;68.34;101425.59;4871916;28;121203;-90
2021/11/12 11:09:18;;;;;;;105.20;33.58;;;;;;;14.82;68.12;101418.69;4855277;28;122853;-90
2021/11/12 11:11:45;;;;;;;115.45;33.97;;;;;;;14.84;68.27;101427.25;4851073;28;123572;-90
2021/11/12 11:14:31;;;;;;;111.45;34.55;;;;;;;14.87;68.35;101420.81;4835505;28;121289;-91
2021/11/12 11:17:26;;;;;;;110.00;35.53;;;;;;;14.92;68.52;101417.47;4865635;28;122922;-90
2021/11/12 11:19:53;;;;;;;100.82;33.67;;;;;;;14.87;68.72;101400.72;4881558;28;122985;-90
2021/11/12 11:22:19;;;;;;;102.45;33.10;;;;;;;14.86;68.46;101397.19;4868726;28;120523;-90
2021/11/12 11:24:49;;;;;;;98.35;33.17;;;;;;;14.95;68.52;101402.72;4856768;28;122241;-91
2021/11/12 11:27:15;;;;;;;94.13;32.15;;;;;;;14.97;68.31;101391.19;4851354;28;120417;-90
2021/11/12 11:29:41;;;;;;;92.15;32.08;;;;;;;15.06;68.33;101402.22;4884357;28;122931;-91
2021/11/12 11:32:07;;;;;;;83.97;30.55;;;;;;;14.97;68.30;101374.63;4867238;28;123382;-91
2021/11/12 11:34:34;;;;;;;104.78;33.47;;;;;;;14.95;68.14;101377.84;4846022;28;120102;-89
2021/11/12 11:37:03;;;;;;;96.55;34.20;;;;;;;15.05;67.98;101397.94;4897733;28;121479;-91
2021/11/12 11:39:29;;;;;;;99.05;34.55;;;;;;;14.99;67.97;101383.97;4832451;28;122652;-91
2021/11/12 11:41:57;;;;;;;93.85;36.15;;;;;;;14.97;67.82;101380.91;4864048;28;120648;-90
2021/11/12 11:44:23;;;;;;;99.03;34.63;;;;;;;14.97;68.43;101375.38;4864026;28;121289;-90
2021/11/12 11:46:52;;;;;;;104.18;36.60;;;;;;;15.12;68.79;101381.00;4865099;28;123208;-90
2021/11/12 11:49:24;;;;;;;94.85;35.55;;;;;;;15.17;68.35;101366.59;4864022;28;120165;-91
2021/11/12 11:51:51;;;;;;;97.63;35.08;;;;;;;15.22;68.27;101368.72;4863212;28;121308;-90
2021/11/12 11:54:18;;;;;;;92.07;35.85;;;;;;;15.13;68.25;101346.63;4862196;28;121757;-90
2021/11/12 11:56:50;;;;;;;86.93;34.50;;;;;;;15.17;68.05;101330.66;4847974;28;122202;-90
2021/11/12 11:59:25;;;;;;;92.13;35.03;;;;;;;15.37;68.21;101352.22;4862799;28;123570;-89
2021/11/12 12:02:03;;;;;;;98.43;37.08;;;;;;;15.30;67.87;101342.28;4833465;28;120000;-90
2021/11/12 12:04:40;;;;;;;90.07;35.35;;;;;;;15.35;67.64;101344.41;4864249;28;120986;-89
2021/11/12 12:07:10;;;;;;;97.13;35.60;;;;;;;15.35;67.64;101338.09;4880800;28;120568;-90
2021/11/12 12:09:54;;;;;;;86.40;35.08;;;;;;;15.29;67.70;101321.38;4867662;28;121405;-89
2021/11/12 12:12:33;;;;;;;82.60;33.05;;;;;;;15.34;67.83;101329.03;4839271;28;123642;-90
2021/11/12 12:15:05;;;;;;;77.18;31.92;;;;;;;15.33;67.35;101327.50;4869577;28;120101;-90
2021/11/12 12:17:36;;;;;;;73.78;32.45;;;;;;;15.30;67.27;101320.16;4865556;28;122502;-89
2021/11/12 12:21:21;;;;;;;79.25;33.67;;;;;;;15.34;66.87;101326.28;4853223;28;123085;-91
2021/11/12 12:42:53;;;;;;;44.58;24.60;;;;;;;15.08;66.58;101294.75;4860639;28;122118;-89
2021/11/12 13:22:43;;;;;;;33.25;17.52;;;;;;;14.68;66.28;101237.06;4849380;28;123680;-89
2021/11/12 13:25:12;;;;;;;30.55;16.83;;;;;;;14.58;66.69;101208.72;4846047;28;122507;-89
2021/11/12 13:27:39;;;;;;;29.52;16.55;;;;;;;14.68;66.03;101212.22;4856717;28;123661;-91
2021/11/12 13:30:06;;;;;;;28.85;16.33;;;;;;;14.68;66.06;101193.66;4833063;28;120751;-90
2021/11/12 13:32:39;;;;;;;29.58;17.17;;;;;;;14.71;66.02;101195.47;4860713;28;120067;-91
2021/11/12 13:35:06;;;;;;;29.25;16.67;;;;;;;14.69;65.69;101197.19;4847907;28;123400;-89
2021/11/12 13:37:32;;;;;;;31.30;16.83;;;;;;;14.45;65.91;101157.69;4865685;28;120582;-90
2021/11/12 13:40:05;;;;;;;26.80;16.38;;;;;;;14.52;65.89;101155.38;4849341;28;119901;-89
2021/11/12 13:42:43;;;;;;;26.23;15.43;;;;;;;14.58;65.91;101161.78;4858787;28;123510;-90
2021/11/12 13:45:23;;;;;;;24.80;15.13;;;;;;;14.51;65.94;101142.81;4870848;28;119936;-88
2021/11/12 13:48:11;;;;;;;26.65;14.45;;;;;;;14.58;66.27;101141.69;4880542;28;123090;-89
2021/11/12 13:50:42;;;;;;;24.17;13.88;;;;;;;14.46;66.02;101126.13;4849336;28;119886;-90
2021/11/12 13:53:08;;;;;;;24.02;13.57;;;;;;;14.59;66.08;101134.94;4864931;28;122799;-90
2021/11/12 13:55:36;;;;;;;24.15;13.07;;;;;;;14.59;65.92;101135.69;4846380;28;123328;-90
2021/11/12 13:58:05;;;;;;;23.15;13.48;;;;;;;14.55;66.06;101129.59;4863158;28;119771;-90
2021/11/12 14:00:36;;;;;;;;;;;;;;;14.60;65.99;101142.75;4865423;28;120598;-90
2021/11/12 14:03:11;;;;;;;19.83;12.02;;;;;;;14.58;66.27;101138.94;4847979;28;123220;-89
2021/11/12 14:05:51;;;;;;;21.33;12.40;;;;;;;14.60;66.03;101144.75;4849443;28;119959;-91
2021/11/12 14:08:17;;;;;;;23.33;12.60;;;;;;;14.58;65.50;101142.44;4853002;28;122600;-90
2021/11/12 14:10:45;;;;;;;23.35;13.13;;;;;;;14.60;65.55;101151.03;4862937;28;122230;-91
2021/11/12 14:13:14;;;;;;;24.08;13.10;;;;;;;14.43;65.90;101116.75;4849522;28;122565;-89
2021/11/12 14:15:57;;;;;;;21.63;12.80;;;;;;;14.64;65.77;101142.56;4869385;28;123291;-90
2021/11/12 14:18:39;;;;;;;23.55;12.35;;;;;;;14.60;66.11;101125.41;4885847;28;119687;-90
2021/11/12 14:37:24;;;;;;;23.08;12.43;;;;;;;14.53;66.05;101082.38;4857218;28;123087;-89
2021/11/12 14:40:04;;;;;;;21.23;13.00;;;;;;;14.56;66.46;101069.63;4861592;28;122240;-90
2021/11/12 14:45:14;;;;;;;21.90;12.73;;;;;;;14.56;66.42;101058.56;4873546;28;122933;-90
2021/11/12 14:47:45;;;;;;;25.55;14.30;;;;;;;14.43;66.67;101028.44;4868630;28;120001;-91
2021/11/12 14:53:19;;;;;;;22.52;14.13;;;;;;;14.48;66.01;101024.28;4862056;28;123145;-89
2021/11/12 14:55:49;;;;;;;24.05;13.98;;;;;;;14.40;65.84;101010.78;4881388;28;121474;-90
2021/11/12 14:58:19;;;;;;;21.70;13.88;;;;;;;14.18;65.78;100968.13;4863112;28;123261;-90
2021/11/12 15:00:52;;;;;;;27.52;16.45;;;;;;;14.10;65.61;100962.97;4896294;28;119900;-88
2021/11/12 15:06:45;;;;;;;22.52;13.55;;;;;;;13.94;65.15;100962.56;4830479;28;121234;-89
2021/11/12 15:09:29;;;;;;;;;;;;;;;;;;;;;
2021/11/12 15:12:31;;;;;;;;;;;;;;;;;;;;;
2021/11/12 15:15:00;;;;;;;18.65;12.73;;;;;;;14.14;65.41;100963.56;4847776;28;122970;-89
2021/11/12 15:26:40;;;;;;;17.08;10.80;;;;;;;13.71;65.25;100881.34;4836936;28;121536;-91
2021/11/12 15:32:50;;;;;;;;;;;;;;;;;;;;;
2021/11/12 15:36:20;;;;;;;13.80;9.15;;;;;;;13.89;64.51;100941.94;4858535;28;120064;-89
2021/11/12 15:39:30;;;;;;;13.07;9.30;;;;;;;13.74;65.25;100925.31;4850056;28;123744;-91
2021/11/12 15:45:27;;;;;;;13.40;9.00;;;;;;;13.95;64.99;100962.13;4882202;28;119973;-90
2021/11/12 15:55:51;;;;;;;13.73;9.10;;;;;;;14.08;65.09;101000.53;4852826;28;122683;-90
2021/11/12 16:13:21;;;;;;;15.85;10.50;;;;;;;13.74;65.50;100972.19;4852548;28;122835;-90
2021/11/12 16:18:49;;;;;;;;;;;;;;;13.87;65.88;100999.53;4869686;28;122401;-92
2021/11/12 16:21:34;;;;;;;14.52;9.05;;;;;;;13.69;65.79;100955.47;4847515;28;123192;-91
2021/11/12 16:26:37;;;;;;;14.60;9.07;;;;;;;13.77;65.86;100965.72;4853691;28;122286;-91
2021/11/12 16:31:37;;;;;;;15.30;9.77;;;;;;;13.87;65.86;100977.47;4863437;28;119986;-91
2021/11/12 16:34:15;;;;;;;17.33;9.35;;;;;;;13.92;65.96;100978.81;4847952;28;121218;-91
2021/11/12 16:36:45;;;;;;;14.38;10.07;;;;;;;13.79;65.82;100965.25;4847630;28;123311;-90
2021/11/12 16:39:14;;;;;;;17.23;10.60;;;;;;;13.87;65.80;100969.19;4872586;28;119913;-91
2021/11/12 16:41:49;;;;;;;15.50;10.85;;;;;;;13.83;65.35;100961.09;4836215;28;122092;-91
2021/11/12 16:44:29;;;;;;;15.80;10.93;;;;;;;13.87;65.10;100977.47;4847325;28;119920;-91
2021/11/12 16:47:08;;;;;;;16.70;10.95;;;;;;;13.76;65.59;100955.16;4869174;28;120015;-90
2021/11/12 16:50:03;;;;;;;19.52;11.23;;;;;;;13.82;65.73;100958.81;4867627;28;122869;-91